Grand Strand Airport North Myrtle Beach US
ICAO: KCRE
IATA: CRE
Category: Medium
Scheduled Services: No

Elevation: 32 ft
TransAlt. 18000 ft.

Airport Communications:
MYRTLE BEACH APP/DEP:119.2
ATIS:119.625
CTAF:124.6
STRAND GND:121.8
ANDERSON RDO:123.6
STRAND TWR:124.6
UNICOM:122.95

KCRE Zoom In..

If you have problems with the map follow the link
https://www.worldairports.se/pages/airport.php?
ICAO=KCRE

Runways:

(A) RW 05 length 5997 ft width 100 ft
---- / hdg 54

(B) RW 23 length 5997 ft width 100 ft
ILS 111.70 / hdg 234

Location; KCRE
Day. 13 / Time. 11.53 Zulu
* Altimeter: 30.18
* Temperature: 08° c. 46.4°f.
* Wind from: 040° Speed 09 kn.
Dewpoint: 06° c.
Visibility: 10 Statute Miles.
Clouds: Few 3400 ft.

KCRE 131153Z 04009KT 10SM FEW034 08/06 A3018 RMK AO1 SLP220 T00780061 10078 20061 56020


Wind From 040°
Speed 09 kn.

 
 
jpsmedia worldairports.se 2019   terms of use